sensor_id;sensor_type;location;lat;lon;timestamp;P1;durP1;ratioP1;P2;durP2;ratioP2
55913;SDS011;58179;48.776;9.124;2022-11-11T00:02:12;14.40;;;7.20;;
55913;SDS011;58179;48.776;9.124;2022-11-11T00:04:38;12.70;;;6.60;;
55913;SDS011;58179;48.776;9.124;2022-11-11T00:07:04;17.17;;;7.95;;
55913;SDS011;58179;48.776;9.124;2022-11-11T00:09:29;16.70;;;8.27;;
55913;SDS011;58179;48.776;9.124;2022-11-11T00:11:57;12.07;;;6.82;;
55913;SDS011;58179;48.776;9.124;2022-11-11T00:14:23;13.48;;;6.72;;
55913;SDS011;58179;48.776;9.124;2022-11-11T00:16:49;12.63;;;6.85;;
55913;SDS011;58179;48.776;9.124;2022-11-11T00:19:33;13.93;;;6.97;;
55913;SDS011;58179;48.776;9.124;2022-11-11T00:22:18;18.13;;;7.78;;
55913;SDS011;58179;48.776;9.124;2022-11-11T00:25:04;15.40;;;8.13;;
55913;SDS011;58179;48.776;9.124;2022-11-11T00:27:32;15.93;;;7.75;;
55913;SDS011;58179;48.776;9.124;2022-11-11T00:29:58;12.68;;;7.22;;
55913;SDS011;58179;48.776;9.124;2022-11-11T00:32:24;19.37;;;8.97;;
55913;SDS011;58179;48.776;9.124;2022-11-11T00:34:52;15.70;;;8.02;;
55913;SDS011;58179;48.776;9.124;2022-11-11T00:37:38;18.15;;;8.18;;
55913;SDS011;58179;48.776;9.124;2022-11-11T00:40:07;16.37;;;7.90;;
55913;SDS011;58179;48.776;9.124;2022-11-11T00:42:36;14.18;;;7.95;;
55913;SDS011;58179;48.776;9.124;2022-11-11T00:45:03;11.25;;;7.07;;
55913;SDS011;58179;48.776;9.124;2022-11-11T00:47:30;13.70;;;6.70;;
55913;SDS011;58179;48.776;9.124;2022-11-11T00:50:15;15.73;;;7.70;;
55913;SDS011;58179;48.776;9.124;2022-11-11T00:53:03;13.40;;;7.20;;
55913;SDS011;58179;48.776;9.124;2022-11-11T00:55:33;11.32;;;6.75;;
55913;SDS011;58179;48.776;9.124;2022-11-11T00:58:01;19.80;;;7.70;;
55913;SDS011;58179;48.776;9.124;2022-11-11T01:00:27;15.13;;;7.50;;
55913;SDS011;58179;48.776;9.124;2022-11-11T01:02:52;12.02;;;7.22;;
55913;SDS011;58179;48.776;9.124;2022-11-11T01:05:18;18.88;;;8.05;;
55913;SDS011;58179;48.776;9.124;2022-11-11T01:07:44;15.07;;;6.90;;
55913;SDS011;58179;48.776;9.124;2022-11-11T01:10:13;12.65;;;7.50;;
55913;SDS011;58179;48.776;9.124;2022-11-11T01:13:00;20.35;;;8.30;;
55913;SDS011;58179;48.776;9.124;2022-11-11T01:15:36;21.38;;;9.23;;
55913;SDS011;58179;48.776;9.124;2022-11-11T01:18:02;16.40;;;8.50;;
55913;SDS011;58179;48.776;9.124;2022-11-11T01:20:28;15.38;;;8.35;;
55913;SDS011;58179;48.776;9.124;2022-11-11T01:22:54;18.08;;;8.82;;
55913;SDS011;58179;48.776;9.124;2022-11-11T01:25:20;15.02;;;7.60;;
55913;SDS011;58179;48.776;9.124;2022-11-11T01:27:46;15.50;;;7.85;;
55913;SDS011;58179;48.776;9.124;2022-11-11T01:30:13;17.45;;;8.07;;
55913;SDS011;58179;48.776;9.124;2022-11-11T01:32:40;14.40;;;7.50;;
55913;SDS011;58179;48.776;9.124;2022-11-11T01:35:06;16.00;;;7.73;;
55913;SDS011;58179;48.776;9.124;2022-11-11T01:37:33;18.80;;;7.80;;
55913;SDS011;58179;48.776;9.124;2022-11-11T01:39:59;14.77;;;7.15;;
55913;SDS011;58179;48.776;9.124;2022-11-11T01:42:25;13.70;;;7.07;;
55913;SDS011;58179;48.776;9.124;2022-11-11T01:44:51;12.43;;;7.20;;
55913;SDS011;58179;48.776;9.124;2022-11-11T01:47:19;11.95;;;6.97;;
55913;SDS011;58179;48.776;9.124;2022-11-11T01:49:47;15.00;;;6.70;;
55913;SDS011;58179;48.776;9.124;2022-11-11T01:52:20;10.68;;;6.93;;
55913;SDS011;58179;48.776;9.124;2022-11-11T01:54:51;13.05;;;6.85;;
55913;SDS011;58179;48.776;9.124;2022-11-11T01:57:21;15.07;;;7.57;;
55913;SDS011;58179;48.776;9.124;2022-11-11T01:59:55;16.70;;;8.80;;
55913;SDS011;58179;48.776;9.124;2022-11-11T02:02:28;14.88;;;7.85;;
55913;SDS011;58179;48.776;9.124;2022-11-11T02:05:01;15.10;;;7.47;;
55913;SDS011;58179;48.776;9.124;2022-11-11T02:07:49;13.75;;;7.35;;
55913;SDS011;58179;48.776;9.124;2022-11-11T02:10:15;13.50;;;7.13;;
55913;SDS011;58179;48.776;9.124;2022-11-11T02:12:44;11.30;;;6.82;;
55913;SDS011;58179;48.776;9.124;2022-11-11T02:15:29;11.73;;;7.35;;
55913;SDS011;58179;48.776;9.124;2022-11-11T02:17:56;16.15;;;8.20;;
55913;SDS011;58179;48.776;9.124;2022-11-11T02:20:22;13.88;;;7.50;;
55913;SDS011;58179;48.776;9.124;2022-11-11T02:22:56;16.73;;;7.80;;
55913;SDS011;58179;48.776;9.124;2022-11-11T02:25:30;16.20;;;7.70;;
55913;SDS011;58179;48.776;9.124;2022-11-11T02:27:57;13.23;;;7.78;;
55913;SDS011;58179;48.776;9.124;2022-11-11T02:30:28;19.00;;;7.55;;
55913;SDS011;58179;48.776;9.124;2022-11-11T02:32:54;18.92;;;8.65;;
55913;SDS011;58179;48.776;9.124;2022-11-11T02:35:21;17.10;;;7.95;;
55913;SDS011;58179;48.776;9.124;2022-11-11T02:37:54;16.00;;;8.05;;
55913;SDS011;58179;48.776;9.124;2022-11-11T02:40:20;15.20;;;8.00;;
55913;SDS011;58179;48.776;9.124;2022-11-11T02:42:53;19.05;;;8.07;;
55913;SDS011;58179;48.776;9.124;2022-11-11T02:45:19;22.25;;;9.80;;
55913;SDS011;58179;48.776;9.124;2022-11-11T02:47:45;22.03;;;9.63;;
55913;SDS011;58179;48.776;9.124;2022-11-11T02:50:11;19.85;;;9.27;;
55913;SDS011;58179;48.776;9.124;2022-11-11T02:52:36;20.75;;;8.93;;
55913;SDS011;58179;48.776;9.124;2022-11-11T02:55:03;26.67;;;10.10;;
55913;SDS011;58179;48.776;9.124;2022-11-11T02:57:30;16.10;;;8.30;;
55913;SDS011;58179;48.776;9.124;2022-11-11T02:59:58;23.90;;;9.55;;
55913;SDS011;58179;48.776;9.124;2022-11-11T03:02:25;21.95;;;9.20;;
55913;SDS011;58179;48.776;9.124;2022-11-11T03:04:51;14.73;;;8.05;;
55913;SDS011;58179;48.776;9.124;2022-11-11T03:07:17;15.35;;;8.10;;
55913;SDS011;58179;48.776;9.124;2022-11-11T03:09:43;17.65;;;8.43;;
55913;SDS011;58179;48.776;9.124;2022-11-11T03:12:09;21.37;;;9.77;;
55913;SDS011;58179;48.776;9.124;2022-11-11T03:14:35;20.50;;;9.85;;
55913;SDS011;58179;48.776;9.124;2022-11-11T03:17:02;19.88;;;9.48;;
55913;SDS011;58179;48.776;9.124;2022-11-11T03:19:46;19.30;;;8.88;;
55913;SDS011;58179;48.776;9.124;2022-11-11T03:22:12;18.20;;;9.40;;
55913;SDS011;58179;48.776;9.124;2022-11-11T03:24:38;18.42;;;8.60;;
55913;SDS011;58179;48.776;9.124;2022-11-11T03:27:23;16.17;;;8.52;;
55913;SDS011;58179;48.776;9.124;2022-11-11T03:29:48;18.67;;;8.80;;
55913;SDS011;58179;48.776;9.124;2022-11-11T03:32:16;21.27;;;8.90;;
55913;SDS011;58179;48.776;9.124;2022-11-11T03:34:41;23.85;;;10.07;;
55913;SDS011;58179;48.776;9.124;2022-11-11T03:37:08;20.02;;;9.73;;
55913;SDS011;58179;48.776;9.124;2022-11-11T03:39:54;19.83;;;9.38;;
55913;SDS011;58179;48.776;9.124;2022-11-11T03:42:20;25.90;;;9.77;;
55913;SDS011;58179;48.776;9.124;2022-11-11T03:44:46;31.80;;;10.95;;
55913;SDS011;58179;48.776;9.124;2022-11-11T03:47:12;24.03;;;9.97;;
55913;SDS011;58179;48.776;9.124;2022-11-11T03:49:41;23.15;;;9.75;;
55913;SDS011;58179;48.776;9.124;2022-11-11T03:52:10;20.00;;;10.05;;
55913;SDS011;58179;48.776;9.124;2022-11-11T03:54:37;22.00;;;9.50;;
55913;SDS011;58179;48.776;9.124;2022-11-11T03:57:02;20.15;;;9.25;;
55913;SDS011;58179;48.776;9.124;2022-11-11T03:59:47;29.50;;;11.10;;
55913;SDS011;58179;48.776;9.124;2022-11-11T04:02:13;24.83;;;10.90;;
55913;SDS011;58179;48.776;9.124;2022-11-11T04:04:59;27.15;;;11.20;;
55913;SDS011;58179;48.776;9.124;2022-11-11T04:07:43;26.90;;;9.93;;
55913;SDS011;58179;48.776;9.124;2022-11-11T04:10:28;17.83;;;8.88;;
55913;SDS011;58179;48.776;9.124;2022-11-11T04:12:56;17.92;;;8.95;;
55913;SDS011;58179;48.776;9.124;2022-11-11T04:15:41;23.33;;;9.95;;
55913;SDS011;58179;48.776;9.124;2022-11-11T04:18:26;23.60;;;10.88;;
55913;SDS011;58179;48.776;9.124;2022-11-11T04:21:12;25.10;;;10.90;;
55913;SDS011;58179;48.776;9.124;2022-11-11T04:23:56;25.73;;;10.70;;
55913;SDS011;58179;48.776;9.124;2022-11-11T04:26:22;21.52;;;10.30;;
55913;SDS011;58179;48.776;9.124;2022-11-11T04:28:48;22.70;;;10.27;;
55913;SDS011;58179;48.776;9.124;2022-11-11T04:31:33;24.60;;;10.50;;
55913;SDS011;58179;48.776;9.124;2022-11-11T04:33:59;18.50;;;9.75;;
55913;SDS011;58179;48.776;9.124;2022-11-11T04:36:26;16.10;;;9.00;;
55913;SDS011;58179;48.776;9.124;2022-11-11T04:38:52;24.23;;;9.90;;
55913;SDS011;58179;48.776;9.124;2022-11-11T04:41:36;17.77;;;8.75;;
55913;SDS011;58179;48.776;9.124;2022-11-11T04:44:02;15.57;;;8.97;;
55913;SDS011;58179;48.776;9.124;2022-11-11T04:46:47;17.17;;;8.02;;
55913;SDS011;58179;48.776;9.124;2022-11-11T04:49:13;14.27;;;7.03;;
55913;SDS011;58179;48.776;9.124;2022-11-11T04:51:40;16.25;;;7.90;;
55913;SDS011;58179;48.776;9.124;2022-11-11T04:54:25;22.85;;;8.35;;
55913;SDS011;58179;48.776;9.124;2022-11-11T04:56:51;34.03;;;8.35;;
55913;SDS011;58179;48.776;9.124;2022-11-11T04:59:18;16.58;;;8.07;;
55913;SDS011;58179;48.776;9.124;2022-11-11T05:01:44;21.53;;;8.83;;
55913;SDS011;58179;48.776;9.124;2022-11-11T05:04:29;16.08;;;8.70;;
55913;SDS011;58179;48.776;9.124;2022-11-11T05:06:56;24.65;;;9.27;;
55913;SDS011;58179;48.776;9.124;2022-11-11T05:09:41;18.30;;;8.38;;
55913;SDS011;58179;48.776;9.124;2022-11-11T05:12:07;16.67;;;7.68;;
55913;SDS011;58179;48.776;9.124;2022-11-11T05:14:33;17.97;;;9.30;;
55913;SDS011;58179;48.776;9.124;2022-11-11T05:17:17;20.00;;;9.40;;
55913;SDS011;58179;48.776;9.124;2022-11-11T05:20:02;16.90;;;8.23;;
55913;SDS011;58179;48.776;9.124;2022-11-11T05:22:48;20.48;;;9.13;;
55913;SDS011;58179;48.776;9.124;2022-11-11T05:25:14;20.38;;;9.52;;
55913;SDS011;58179;48.776;9.124;2022-11-11T05:27:49;23.38;;;9.48;;
55913;SDS011;58179;48.776;9.124;2022-11-11T05:30:16;26.48;;;9.88;;
55913;SDS011;58179;48.776;9.124;2022-11-11T05:32:43;18.88;;;9.77;;
55913;SDS011;58179;48.776;9.124;2022-11-11T05:35:10;20.88;;;10.60;;
55913;SDS011;58179;48.776;9.124;2022-11-11T05:37:37;23.42;;;10.30;;
55913;SDS011;58179;48.776;9.124;2022-11-11T05:40:05;25.02;;;10.10;;
55913;SDS011;58179;48.776;9.124;2022-11-11T05:42:33;23.98;;;10.27;;
55913;SDS011;58179;48.776;9.124;2022-11-11T05:44:59;19.58;;;10.10;;
55913;SDS011;58179;48.776;9.124;2022-11-11T05:47:25;20.25;;;9.68;;
55913;SDS011;58179;48.776;9.124;2022-11-11T05:49:51;16.23;;;8.50;;
55913;SDS011;58179;48.776;9.124;2022-11-11T05:52:17;18.80;;;9.15;;
55913;SDS011;58179;48.776;9.124;2022-11-11T05:54:43;18.05;;;8.85;;
55913;SDS011;58179;48.776;9.124;2022-11-11T05:57:11;16.63;;;8.93;;
55913;SDS011;58179;48.776;9.124;2022-11-11T05:59:37;16.25;;;8.40;;
55913;SDS011;58179;48.776;9.124;2022-11-11T06:02:03;23.43;;;9.60;;
55913;SDS011;58179;48.776;9.124;2022-11-11T06:04:29;24.48;;;9.20;;
55913;SDS011;58179;48.776;9.124;2022-11-11T06:06:55;24.23;;;10.13;;
55913;SDS011;58179;48.776;9.124;2022-11-11T06:09:21;21.40;;;9.80;;
55913;SDS011;58179;48.776;9.124;2022-11-11T06:11:47;21.90;;;9.93;;
55913;SDS011;58179;48.776;9.124;2022-11-11T06:14:14;22.33;;;9.95;;
55913;SDS011;58179;48.776;9.124;2022-11-11T06:16:40;24.20;;;10.32;;
55913;SDS011;58179;48.776;9.124;2022-11-11T06:19:06;24.43;;;9.63;;
55913;SDS011;58179;48.776;9.124;2022-11-11T06:21:32;23.05;;;9.93;;
55913;SDS011;58179;48.776;9.124;2022-11-11T06:24:18;23.35;;;9.23;;
55913;SDS011;58179;48.776;9.124;2022-11-11T06:26:44;18.27;;;8.48;;
55913;SDS011;58179;48.776;9.124;2022-11-11T06:29:10;24.45;;;9.43;;
55913;SDS011;58179;48.776;9.124;2022-11-11T06:31:37;29.07;;;10.60;;
55913;SDS011;58179;48.776;9.124;2022-11-11T06:34:03;24.58;;;10.30;;
55913;SDS011;58179;48.776;9.124;2022-11-11T06:36:29;29.52;;;11.15;;
55913;SDS011;58179;48.776;9.124;2022-11-11T06:38:55;34.30;;;12.23;;
55913;SDS011;58179;48.776;9.124;2022-11-11T06:41:21;31.90;;;13.13;;
55913;SDS011;58179;48.776;9.124;2022-11-11T06:43:49;27.27;;;12.60;;
55913;SDS011;58179;48.776;9.124;2022-11-11T06:46:16;23.27;;;10.70;;
55913;SDS011;58179;48.776;9.124;2022-11-11T06:48:49;34.63;;;13.45;;
55913;SDS011;58179;48.776;9.124;2022-11-11T06:51:15;19.33;;;9.57;;
55913;SDS011;58179;48.776;9.124;2022-11-11T06:53:41;23.25;;;10.55;;
55913;SDS011;58179;48.776;9.124;2022-11-11T06:56:08;25.70;;;10.80;;
55913;SDS011;58179;48.776;9.124;2022-11-11T06:58:36;29.42;;;11.48;;
55913;SDS011;58179;48.776;9.124;2022-11-11T07:01:03;25.47;;;10.63;;
55913;SDS011;58179;48.776;9.124;2022-11-11T07:03:29;31.13;;;13.18;;
55913;SDS011;58179;48.776;9.124;2022-11-11T07:05:58;29.10;;;12.03;;
55913;SDS011;58179;48.776;9.124;2022-11-11T07:08:25;27.05;;;11.57;;
55913;SDS011;58179;48.776;9.124;2022-11-11T07:10:51;27.55;;;11.65;;
55913;SDS011;58179;48.776;9.124;2022-11-11T07:13:17;26.07;;;11.43;;
55913;SDS011;58179;48.776;9.124;2022-11-11T07:15:43;34.50;;;13.70;;
55913;SDS011;58179;48.776;9.124;2022-11-11T07:18:10;22.40;;;10.77;;
55913;SDS011;58179;48.776;9.124;2022-11-11T07:20:36;30.42;;;11.68;;
55913;SDS011;58179;48.776;9.124;2022-11-11T07:23:04;31.83;;;11.97;;
55913;SDS011;58179;48.776;9.124;2022-11-11T07:25:31;33.00;;;12.27;;
55913;SDS011;58179;48.776;9.124;2022-11-11T07:27:57;27.35;;;11.07;;
55913;SDS011;58179;48.776;9.124;2022-11-11T07:30:23;24.80;;;11.25;;
55913;SDS011;58179;48.776;9.124;2022-11-11T07:32:50;23.15;;;10.50;;
55913;SDS011;58179;48.776;9.124;2022-11-11T07:35:17;26.17;;;11.50;;
55913;SDS011;58179;48.776;9.124;2022-11-11T07:37:44;32.72;;;12.73;;
55913;SDS011;58179;48.776;9.124;2022-11-11T07:40:12;26.10;;;11.60;;
55913;SDS011;58179;48.776;9.124;2022-11-11T07:42:41;23.92;;;11.20;;
55913;SDS011;58179;48.776;9.124;2022-11-11T07:45:08;26.48;;;11.63;;
55913;SDS011;58179;48.776;9.124;2022-11-11T07:47:36;34.67;;;15.25;;
55913;SDS011;58179;48.776;9.124;2022-11-11T07:50:02;29.13;;;13.37;;
55913;SDS011;58179;48.776;9.124;2022-11-11T07:52:30;29.33;;;13.88;;
55913;SDS011;58179;48.776;9.124;2022-11-11T07:54:56;32.72;;;14.77;;
55913;SDS011;58179;48.776;9.124;2022-11-11T07:57:24;48.70;;;16.65;;
55913;SDS011;58179;48.776;9.124;2022-11-11T07:59:49;39.53;;;16.55;;
55913;SDS011;58179;48.776;9.124;2022-11-11T08:02:15;38.08;;;16.52;;
55913;SDS011;58179;48.776;9.124;2022-11-11T08:04:42;41.83;;;16.13;;
55913;SDS011;58179;48.776;9.124;2022-11-11T08:07:08;40.53;;;15.82;;
55913;SDS011;58179;48.776;9.124;2022-11-11T08:09:34;37.70;;;16.08;;
55913;SDS011;58179;48.776;9.124;2022-11-11T08:11:59;37.67;;;15.27;;
55913;SDS011;58179;48.776;9.124;2022-11-11T08:14:45;32.00;;;14.93;;
55913;SDS011;58179;48.776;9.124;2022-11-11T08:17:11;39.42;;;14.98;;
55913;SDS011;58179;48.776;9.124;2022-11-11T08:19:37;35.22;;;14.38;;
55913;SDS011;58179;48.776;9.124;2022-11-11T08:22:03;31.95;;;13.50;;
55913;SDS011;58179;48.776;9.124;2022-11-11T08:24:30;31.37;;;13.83;;
55913;SDS011;58179;48.776;9.124;2022-11-11T08:26:56;33.70;;;12.80;;
55913;SDS011;58179;48.776;9.124;2022-11-11T08:29:22;28.10;;;12.03;;
55913;SDS011;58179;48.776;9.124;2022-11-11T08:31:50;23.63;;;10.77;;
55913;SDS011;58179;48.776;9.124;2022-11-11T08:34:16;34.30;;;12.20;;
55913;SDS011;58179;48.776;9.124;2022-11-11T08:36:42;21.45;;;11.00;;
55913;SDS011;58179;48.776;9.124;2022-11-11T08:39:08;22.48;;;10.45;;
55913;SDS011;58179;48.776;9.124;2022-11-11T08:41:35;21.83;;;10.57;;
55913;SDS011;58179;48.776;9.124;2022-11-11T08:44:01;23.43;;;10.13;;
55913;SDS011;58179;48.776;9.124;2022-11-11T08:46:29;29.60;;;11.85;;
55913;SDS011;58179;48.776;9.124;2022-11-11T08:48:56;24.70;;;11.07;;
55913;SDS011;58179;48.776;9.124;2022-11-11T08:51:22;23.67;;;10.60;;
55913;SDS011;58179;48.776;9.124;2022-11-11T08:53:48;27.85;;;10.95;;
55913;SDS011;58179;48.776;9.124;2022-11-11T08:56:14;30.48;;;12.15;;
55913;SDS011;58179;48.776;9.124;2022-11-11T08:58:40;25.37;;;11.30;;
55913;SDS011;58179;48.776;9.124;2022-11-11T09:01:09;19.95;;;10.35;;
55913;SDS011;58179;48.776;9.124;2022-11-11T09:03:37;22.55;;;11.07;;
55913;SDS011;58179;48.776;9.124;2022-11-11T09:06:06;19.33;;;10.13;;
55913;SDS011;58179;48.776;9.124;2022-11-11T09:08:32;18.20;;;8.40;;
55913;SDS011;58179;48.776;9.124;2022-11-11T09:10:58;20.15;;;9.05;;
55913;SDS011;58179;48.776;9.124;2022-11-11T09:13:24;16.92;;;8.30;;
55913;SDS011;58179;48.776;9.124;2022-11-11T09:15:51;17.53;;;8.27;;
55913;SDS011;58179;48.776;9.124;2022-11-11T09:18:18;15.30;;;8.13;;
55913;SDS011;58179;48.776;9.124;2022-11-11T09:20:43;16.85;;;8.23;;
55913;SDS011;58179;48.776;9.124;2022-11-11T09:23:11;13.23;;;6.60;;
55913;SDS011;58179;48.776;9.124;2022-11-11T09:25:37;18.52;;;7.88;;
55913;SDS011;58179;48.776;9.124;2022-11-11T09:28:03;14.10;;;7.10;;
55913;SDS011;58179;48.776;9.124;2022-11-11T09:30:29;12.40;;;6.60;;
55913;SDS011;58179;48.776;9.124;2022-11-11T09:32:59;13.15;;;6.65;;
55913;SDS011;58179;48.776;9.124;2022-11-11T09:35:26;12.10;;;6.90;;
55913;SDS011;58179;48.776;9.124;2022-11-11T09:37:53;11.27;;;6.00;;
55913;SDS011;58179;48.776;9.124;2022-11-11T09:40:23;10.68;;;5.72;;
55913;SDS011;58179;48.776;9.124;2022-11-11T09:42:59;8.73;;;5.30;;
55913;SDS011;58179;48.776;9.124;2022-11-11T09:45:37;8.98;;;4.60;;
55913;SDS011;58179;48.776;9.124;2022-11-11T09:48:22;11.35;;;5.30;;
55913;SDS011;58179;48.776;9.124;2022-11-11T09:51:03;10.50;;;5.10;;
55913;SDS011;58179;48.776;9.124;2022-11-11T09:53:34;6.73;;;4.63;;
55913;SDS011;58179;48.776;9.124;2022-11-11T09:56:06;7.78;;;4.13;;
55913;SDS011;58179;48.776;9.124;2022-11-11T09:58:36;10.90;;;4.40;;
55913;SDS011;58179;48.776;9.124;2022-11-11T10:01:07;8.18;;;4.20;;
55913;SDS011;58179;48.776;9.124;2022-11-11T10:03:39;8.88;;;4.25;;
55913;SDS011;58179;48.776;9.124;2022-11-11T10:06:12;11.73;;;4.70;;
55913;SDS011;58179;48.776;9.124;2022-11-11T10:08:46;9.95;;;3.97;;
55913;SDS011;58179;48.776;9.124;2022-11-11T10:11:24;7.93;;;3.87;;
55913;SDS011;58179;48.776;9.124;2022-11-11T10:14:03;8.02;;;3.40;;
55913;SDS011;58179;48.776;9.124;2022-11-11T10:16:31;9.77;;;3.88;;
55913;SDS011;58179;48.776;9.124;2022-11-11T10:19:10;6.60;;;3.60;;
55913;SDS011;58179;48.776;9.124;2022-11-11T10:21:52;8.13;;;3.80;;
55913;SDS011;58179;48.776;9.124;2022-11-11T10:24:24;8.50;;;3.78;;
55913;SDS011;58179;48.776;9.124;2022-11-11T10:26:55;8.55;;;4.22;;
55913;SDS011;58179;48.776;9.124;2022-11-11T10:29:29;6.03;;;3.90;;
55913;SDS011;58179;48.776;9.124;2022-11-11T10:32:09;9.32;;;4.10;;
55913;SDS011;58179;48.776;9.124;2022-11-11T10:34:42;8.25;;;4.20;;
55913;SDS011;58179;48.776;9.124;2022-11-11T10:37:14;7.70;;;3.83;;
55913;SDS011;58179;48.776;9.124;2022-11-11T10:39:47;10.90;;;4.35;;
55913;SDS011;58179;48.776;9.124;2022-11-11T10:42:25;9.90;;;4.60;;
55913;SDS011;58179;48.776;9.124;2022-11-11T10:44:53;9.98;;;4.68;;
55913;SDS011;58179;48.776;9.124;2022-11-11T10:47:28;8.02;;;4.18;;
55913;SDS011;58179;48.776;9.124;2022-11-11T10:50:08;7.80;;;3.78;;
55913;SDS011;58179;48.776;9.124;2022-11-11T10:52:42;7.43;;;4.30;;
55913;SDS011;58179;48.776;9.124;2022-11-11T10:55:13;12.88;;;5.22;;
55913;SDS011;58179;48.776;9.124;2022-11-11T10:57:47;7.90;;;4.55;;
55913;SDS011;58179;48.776;9.124;2022-11-11T11:00:19;8.73;;;4.00;;
55913;SDS011;58179;48.776;9.124;2022-11-11T11:02:48;7.60;;;4.20;;
55913;SDS011;58179;48.776;9.124;2022-11-11T11:05:24;9.93;;;4.90;;
55913;SDS011;58179;48.776;9.124;2022-11-11T11:07:55;12.52;;;5.30;;
55913;SDS011;58179;48.776;9.124;2022-11-11T11:10:33;11.88;;;5.30;;
55913;SDS011;58179;48.776;9.124;2022-11-11T11:13:06;9.38;;;4.40;;
55913;SDS011;58179;48.776;9.124;2022-11-11T11:15:40;6.38;;;3.92;;
55913;SDS011;58179;48.776;9.124;2022-11-11T11:18:15;14.32;;;5.68;;
55913;SDS011;58179;48.776;9.124;2022-11-11T11:20:53;9.07;;;4.65;;
55913;SDS011;58179;48.776;9.124;2022-11-11T11:23:34;13.18;;;4.45;;
55913;SDS011;58179;48.776;9.124;2022-11-11T11:26:02;9.65;;;4.85;;
55913;SDS011;58179;48.776;9.124;2022-11-11T11:31:33;10.70;;;5.30;;
55913;SDS011;58179;48.776;9.124;2022-11-11T11:34:01;9.00;;;4.88;;
55913;SDS011;58179;48.776;9.124;2022-11-11T11:36:28;9.73;;;4.72;;
55913;SDS011;58179;48.776;9.124;2022-11-11T11:38:54;9.65;;;5.45;;
55913;SDS011;58179;48.776;9.124;2022-11-11T11:41:34;9.25;;;5.15;;
55913;SDS011;58179;48.776;9.124;2022-11-11T11:44:04;10.18;;;5.10;;
55913;SDS011;58179;48.776;9.124;2022-11-11T11:46:50;8.68;;;4.50;;
55913;SDS011;58179;48.776;9.124;2022-11-11T11:49:24;8.85;;;4.82;;
55913;SDS011;58179;48.776;9.124;2022-11-11T11:52:00;8.00;;;4.88;;
55913;SDS011;58179;48.776;9.124;2022-11-11T11:54:48;11.85;;;5.45;;
55913;SDS011;58179;48.776;9.124;2022-11-11T11:57:23;9.18;;;5.05;;
55913;SDS011;58179;48.776;9.124;2022-11-11T12:00:13;15.97;;;6.10;;
55913;SDS011;58179;48.776;9.124;2022-11-11T12:02:56;12.50;;;5.65;;
55913;SDS011;58179;48.776;9.124;2022-11-11T12:05:46;9.13;;;5.90;;
55913;SDS011;58179;48.776;9.124;2022-11-11T12:08:18;10.40;;;5.20;;
55913;SDS011;58179;48.776;9.124;2022-11-11T12:11:06;11.70;;;6.63;;
55913;SDS011;58179;48.776;9.124;2022-11-11T12:13:43;7.97;;;5.25;;
55913;SDS011;58179;48.776;9.124;2022-11-11T12:16:24;10.27;;;6.05;;
55913;SDS011;58179;48.776;9.124;2022-11-11T12:19:04;8.43;;;5.68;;
55913;SDS011;58179;48.776;9.124;2022-11-11T12:21:51;12.60;;;6.75;;
55913;SDS011;58179;48.776;9.124;2022-11-11T12:24:35;13.18;;;5.78;;
55913;SDS011;58179;48.776;9.124;2022-11-11T12:27:14;9.38;;;5.72;;
55913;SDS011;58179;48.776;9.124;2022-11-11T12:29:54;9.80;;;5.78;;
55913;SDS011;58179;48.776;9.124;2022-11-11T12:32:33;8.75;;;5.20;;
55913;SDS011;58179;48.776;9.124;2022-11-11T12:35:25;8.00;;;5.45;;
55913;SDS011;58179;48.776;9.124;2022-11-11T12:38:12;10.30;;;5.55;;
55913;SDS011;58179;48.776;9.124;2022-11-11T12:40:53;9.02;;;5.57;;
55913;SDS011;58179;48.776;9.124;2022-11-11T12:43:28;13.02;;;6.32;;
55913;SDS011;58179;48.776;9.124;2022-11-11T12:46:04;13.38;;;7.13;;
55913;SDS011;58179;48.776;9.124;2022-11-11T12:48:45;12.10;;;6.67;;
55913;SDS011;58179;48.776;9.124;2022-11-11T12:51:25;10.30;;;6.37;;
55913;SDS011;58179;48.776;9.124;2022-11-11T12:54:09;10.60;;;6.57;;
55913;SDS011;58179;48.776;9.124;2022-11-11T12:56:50;9.13;;;5.93;;
55913;SDS011;58179;48.776;9.124;2022-11-11T12:59:28;15.68;;;6.68;;
55913;SDS011;58179;48.776;9.124;2022-11-11T13:02:14;12.18;;;5.72;;
55913;SDS011;58179;48.776;9.124;2022-11-11T13:05:03;10.63;;;5.80;;
55913;SDS011;58179;48.776;9.124;2022-11-11T13:07:41;9.57;;;6.18;;
55913;SDS011;58179;48.776;9.124;2022-11-11T13:10:40;11.15;;;6.00;;
55913;SDS011;58179;48.776;9.124;2022-11-11T13:13:27;14.43;;;6.87;;
55913;SDS011;58179;48.776;9.124;2022-11-11T13:16:06;19.35;;;6.80;;
55913;SDS011;58179;48.776;9.124;2022-11-11T13:18:35;10.85;;;6.15;;
55913;SDS011;58179;48.776;9.124;2022-11-11T13:21:11;7.93;;;5.55;;
55913;SDS011;58179;48.776;9.124;2022-11-11T13:23:42;10.77;;;6.80;;
55913;SDS011;58179;48.776;9.124;2022-11-11T13:26:11;12.55;;;6.28;;
55913;SDS011;58179;48.776;9.124;2022-11-11T13:28:50;12.02;;;6.40;;
55913;SDS011;58179;48.776;9.124;2022-11-11T13:31:32;9.15;;;5.93;;
55913;SDS011;58179;48.776;9.124;2022-11-11T13:34:03;9.07;;;5.72;;
55913;SDS011;58179;48.776;9.124;2022-11-11T13:36:41;10.32;;;5.65;;
55913;SDS011;58179;48.776;9.124;2022-11-11T13:39:19;8.02;;;5.20;;
55913;SDS011;58179;48.776;9.124;2022-11-11T13:41:51;8.07;;;5.40;;
55913;SDS011;58179;48.776;9.124;2022-11-11T13:44:23;9.70;;;5.60;;
55913;SDS011;58179;48.776;9.124;2022-11-11T13:46:58;10.40;;;5.63;;
55913;SDS011;58179;48.776;9.124;2022-11-11T13:49:29;9.23;;;5.85;;
55913;SDS011;58179;48.776;9.124;2022-11-11T13:52:02;8.73;;;5.00;;
55913;SDS011;58179;48.776;9.124;2022-11-11T13:54:30;7.88;;;5.05;;
55913;SDS011;58179;48.776;9.124;2022-11-11T13:57:05;10.70;;;5.97;;
55913;SDS011;58179;48.776;9.124;2022-11-11T13:59:41;10.93;;;5.43;;
55913;SDS011;58179;48.776;9.124;2022-11-11T14:05:16;8.57;;;5.55;;
55913;SDS011;58179;48.776;9.124;2022-11-11T14:07:51;9.63;;;5.22;;
55913;SDS011;58179;48.776;9.124;2022-11-11T14:13:34;8.07;;;5.00;;
55913;SDS011;58179;48.776;9.124;2022-11-11T14:16:08;7.07;;;4.57;;
55913;SDS011;58179;48.776;9.124;2022-11-11T14:18:37;7.10;;;4.72;;
55913;SDS011;58179;48.776;9.124;2022-11-11T14:21:07;8.52;;;4.65;;
55913;SDS011;58179;48.776;9.124;2022-11-11T14:23:36;9.10;;;4.68;;
55913;SDS011;58179;48.776;9.124;2022-11-11T14:26:14;8.48;;;4.93;;
55913;SDS011;58179;48.776;9.124;2022-11-11T14:28:51;13.73;;;5.90;;
55913;SDS011;58179;48.776;9.124;2022-11-11T14:34:36;10.32;;;5.50;;
55913;SDS011;58179;48.776;9.124;2022-11-11T14:37:20;13.68;;;6.07;;
55913;SDS011;58179;48.776;9.124;2022-11-11T14:39:57;9.77;;;5.20;;
55913;SDS011;58179;48.776;9.124;2022-11-11T14:42:42;8.95;;;5.20;;
55913;SDS011;58179;48.776;9.124;2022-11-11T14:54:22;14.32;;;6.75;;
55913;SDS011;58179;48.776;9.124;2022-11-11T14:56:59;11.15;;;6.25;;
55913;SDS011;58179;48.776;9.124;2022-11-11T14:59:31;9.05;;;5.82;;
55913;SDS011;58179;48.776;9.124;2022-11-11T15:01:58;12.65;;;6.10;;
55913;SDS011;58179;48.776;9.124;2022-11-11T15:04:26;10.73;;;5.78;;
55913;SDS011;58179;48.776;9.124;2022-11-11T15:07:00;12.35;;;5.93;;
55913;SDS011;58179;48.776;9.124;2022-11-11T15:09:33;15.73;;;6.25;;
55913;SDS011;58179;48.776;9.124;2022-11-11T15:12:25;10.85;;;6.03;;
55913;SDS011;58179;48.776;9.124;2022-11-11T15:15:05;18.83;;;7.70;;
55913;SDS011;58179;48.776;9.124;2022-11-11T15:17:40;15.57;;;6.50;;
55913;SDS011;58179;48.776;9.124;2022-11-11T15:20:24;14.40;;;7.35;;
55913;SDS011;58179;48.776;9.124;2022-11-11T15:23:01;16.88;;;7.47;;